Time;durP1;ratioP1;P1;durP2;ratioP2;P2;SDS_P1;SDS_P2;PMS_P1;PMS_P2;Temp;Humidity;BMP_temperature;BMP_pressure;BME280_temperature;BME280_humidity;BME280_pressure;Samples;Min_cycle;Max_cycle;Signal;HPM_P1;HPM_P2
2023/03/03 05:41:47;;;;;;;16.20;8.70;;;;;;;1.92;89.44;100186.71;110118;1248;22511;-43
2023/03/03 05:44:14;;;;;;;12.70;8.70;;;;;;;1.93;89.46;100181.26;111195;1249;23933;-49
2023/03/03 05:46:42;;;;;;;13.30;8.90;;;;;;;1.96;89.43;100185.48;110819;1249;25509;-51
2023/03/03 05:49:09;;;;;;;12.80;7.70;;;;;;;2.00;89.41;100187.48;111985;1249;22596;-52
2023/03/03 05:51:36;;;;;;;12.80;8.20;;;;;;;2.01;89.30;100186.33;110603;1249;25685;-43
2023/03/03 05:54:03;;;;;;;13.50;8.60;;;;;;;1.99;89.34;100185.59;111221;1249;25250;-43
2023/03/03 05:56:29;;;;;;;10.80;7.30;;;;;;;1.98;89.41;100186.07;111143;1249;22518;-43
2023/03/03 05:58:56;;;;;;;11.60;8.70;;;;;;;1.97;89.55;100185.84;110642;1249;22500;-51
2023/03/03 06:01:23;;;;;;;12.10;7.80;;;;;;;1.97;89.77;100188.11;110648;1249;25105;-51
2023/03/03 06:03:49;;;;;;;14.00;9.00;;;;;;;1.99;89.66;100189.89;112210;1249;22315;-52
2023/03/03 06:06:18;;;;;;;16.10;9.70;;;;;;;2.02;89.45;100188.58;112907;1248;22424;-52
2023/03/03 06:08:44;;;;;;;17.20;8.60;;;;;;;2.05;89.40;100190.24;112728;1249;115635;-52
2023/03/03 06:11:15;;;;;;;18.10;9.90;;;;;;;2.10;89.15;100186.27;112859;1249;22445;-53
2023/03/03 06:14:02;;;;;;;13.60;8.40;;;;;;;2.15;89.12;100186.42;112837;1249;23235;-43
2023/03/03 06:16:29;;;;;;;12.80;7.70;;;;;;;2.19;89.07;100182.92;112550;1249;23657;-51
2023/03/03 06:18:57;;;;;;;13.30;8.80;;;;;;;2.21;89.01;100180.45;112860;1248;23260;-44
2023/03/03 06:21:25;;;;;;;17.20;9.70;;;;;;;2.23;88.82;100181.69;112528;1249;22845;-43
2023/03/03 06:23:52;;;;;;;14.00;9.20;;;;;;;2.23;88.54;100179.30;112650;1249;22264;-44
2023/03/03 06:26:19;;;;;;;13.10;8.40;;;;;;;2.25;88.59;100174.20;112629;1249;22446;-44
2023/03/03 06:28:49;;;;;;;15.20;9.40;;;;;;;2.28;88.56;100170.52;112620;1248;23544;-44
2023/03/03 06:31:15;;;;;;;14.50;9.40;;;;;;;2.34;88.48;100171.36;112735;1249;23639;-53
2023/03/03 06:33:43;;;;;;;13.10;9.00;;;;;;;2.39;88.45;100167.73;112753;1249;22364;-52
2023/03/03 06:36:12;;;;;;;10.50;7.40;;;;;;;2.43;88.08;100164.95;112604;1249;22524;-44
2023/03/03 06:38:42;;;;;;;14.30;9.40;;;;;;;2.46;87.91;100164.00;111767;1249;22560;-55
2023/03/03 06:41:10;;;;;;;13.70;9.20;;;;;;;2.49;87.58;100164.77;112054;1249;22467;-52
2023/03/03 06:43:45;;;;;;;10.60;7.60;;;;;;;2.53;87.43;100163.67;112388;1249;22252;-45
2023/03/03 06:46:20;;;;;;;10.70;7.10;;;;;;;2.56;87.13;100159.83;111752;1249;25419;-54
2023/03/03 06:49:22;;;;;;;15.10;9.00;;;;;;;2.59;87.21;100159.90;112268;1249;22961;-51
2023/03/03 06:52:14;;;;;;;14.80;8.10;;;;;;;2.62;87.33;100158.13;111552;1248;24211;-42
2023/03/03 06:54:41;;;;;;;12.30;8.10;;;;;;;2.65;87.23;100156.30;112469;1249;22592;-44
2023/03/03 06:57:31;;;;;;;10.50;7.50;;;;;;;2.66;87.17;100155.27;112273;1249;22489;-52
2023/03/03 07:00:22;;;;;;;13.40;8.00;;;;;;;2.62;87.46;100155.20;111602;1239;22735;-44
2023/03/03 07:03:01;;;;;;;14.50;8.10;;;;;;;2.61;87.67;100151.04;111110;1249;22820;-53
2023/03/03 07:05:35;;;;;;;17.50;8.50;;;;;;;2.63;87.94;100148.16;111330;1249;22508;-44
2023/03/03 07:08:23;;;;;;;12.40;7.60;;;;;;;2.68;88.02;100150.37;111772;1249;22578;-50
2023/03/03 07:11:06;;;;;;;13.20;7.90;;;;;;;2.73;87.80;100141.89;111960;1249;22905;-44
2023/03/03 07:13:53;;;;;;;10.20;7.50;;;;;;;2.78;87.88;100139.77;112026;1249;22442;-52
2023/03/03 07:16:25;;;;;;;13.00;7.90;;;;;;;2.82;87.36;100139.57;112000;1249;23706;-43
2023/03/03 07:19:04;;;;;;;12.20;7.90;;;;;;;2.86;87.06;100135.73;112349;1249;22676;-51
2023/03/03 07:21:33;;;;;;;11.80;8.20;;;;;;;2.91;86.74;100138.63;112349;1249;22389;-51
2023/03/03 07:24:00;;;;;;;15.80;9.50;;;;;;;2.95;86.45;100136.46;112624;1249;23078;-44
2023/03/03 07:26:32;;;;;;;13.80;7.90;;;;;;;3.00;86.35;100134.73;112696;1249;22440;-43
2023/03/03 07:29:15;;;;;;;14.40;8.80;;;;;;;3.07;86.20;100140.95;112661;1249;22222;-52
2023/03/03 07:31:45;;;;;;;16.10;10.60;;;;;;;3.10;85.96;100138.11;112655;1249;22373;-43
2023/03/03 07:34:41;;;;;;;16.40;9.20;;;;;;;3.14;86.07;100137.02;112508;1235;22476;-44
2023/03/03 07:37:37;;;;;;;19.20;10.20;;;;;;;3.17;85.76;100132.80;112750;1249;22458;-52
2023/03/03 07:40:29;;;;;;;16.30;9.80;;;;;;;3.25;85.27;100133.33;112855;1249;23567;-52
2023/03/03 07:42:56;;;;;;;17.80;10.20;;;;;;;3.30;84.26;100130.38;112955;1249;22389;-45
2023/03/03 07:45:35;;;;;;;22.80;10.50;;;;;;;3.30;83.75;100123.49;112418;1249;22768;-43
2023/03/03 07:48:11;;;;;;;30.80;12.80;;;;;;;3.33;83.11;100123.39;112964;1249;22390;-43
2023/03/03 07:50:40;;;;;;;31.30;14.30;;;;;;;3.34;82.56;100119.96;112952;1249;22351;-43
2023/03/03 07:53:36;;;;;;;38.00;14.90;;;;;;;3.34;82.54;100121.70;112680;1249;22409;-43
2023/03/03 07:56:29;;;;;;;32.00;15.50;;;;;;;3.37;82.56;100111.77;112960;1249;22315;-53
2023/03/03 07:58:56;;;;;;;30.00;13.10;;;;;;;3.44;82.07;100105.73;112495;1249;22419;-52
2023/03/03 08:01:56;;;;;;;29.60;13.40;;;;;;;3.50;81.80;100104.70;111317;1249;24182;-52
2023/03/03 08:04:29;;;;;;;23.50;11.60;;;;;;;3.57;81.37;100105.05;111422;1256;24023;-53
2023/03/03 08:07:02;;;;;;;19.10;10.60;;;;;;;3.61;80.98;100109.11;112210;1256;22945;-51
2023/03/03 08:09:43;;;;;;;14.70;10.20;;;;;;;3.61;81.60;100102.91;112167;1256;22246;-50
2023/03/03 08:12:23;;;;;;;15.20;9.80;;;;;;;3.58;81.72;100099.88;112163;1256;23230;-51
2023/03/03 08:14:51;;;;;;;17.00;10.50;;;;;;;3.56;81.80;100103.29;112062;1256;23602;-51
2023/03/03 08:17:25;;;;;;;20.00;12.20;;;;;;;3.52;81.60;100098.86;112238;1256;23248;-53
2023/03/03 08:19:52;;;;;;;18.30;11.40;;;;;;;3.48;81.65;100099.81;111993;1256;22461;-51
2023/03/03 08:22:33;;;;;;;17.90;11.00;;;;;;;3.46;81.92;100091.83;112216;1256;23353;-50
2023/03/03 08:25:01;;;;;;;18.10;11.30;;;;;;;3.44;81.75;100090.94;111983;1256;23421;-51
2023/03/03 08:27:28;;;;;;;16.90;11.30;;;;;;;3.40;81.79;100090.47;112162;1256;22285;-52
2023/03/03 08:29:55;;;;;;;19.00;11.60;;;;;;;3.40;81.81;100089.44;112102;1256;23025;-52
2023/03/03 08:32:22;;;;;;;20.20;12.20;;;;;;;3.44;82.02;100089.02;112049;1256;22465;-51
2023/03/03 08:34:49;;;;;;;26.70;15.80;;;;;;;3.49;82.01;100090.01;112120;1256;22607;-52
2023/03/03 08:37:17;;;;;;;25.10;13.00;;;;;;;3.53;81.95;100088.20;112155;1256;23683;-43
2023/03/03 08:39:44;;;;;;;36.40;16.70;;;;;;;3.53;81.68;100086.13;111878;1249;22412;-43
2023/03/03 08:42:11;;;;;;;23.00;13.80;;;;;;;3.52;81.77;100086.63;112881;1249;22239;-51
2023/03/03 08:44:42;;;;;;;26.30;12.50;;;;;;;3.52;81.77;100084.90;112890;1249;22360;-43
2023/03/03 08:47:09;;;;;;;15.30;9.90;;;;;;;3.52;82.01;100079.05;112786;1249;22405;-44
2023/03/03 08:49:38;;;;;;;17.40;10.40;;;;;;;3.56;81.61;100079.32;112874;1249;22383;-44
2023/03/03 08:52:05;;;;;;;24.90;15.70;;;;;;;3.57;80.92;100082.28;112884;1249;22599;-44
2023/03/03 08:54:32;;;;;;;23.30;13.60;;;;;;;3.59;80.99;100074.20;112507;1249;22418;-44
2023/03/03 08:56:59;;;;;;;20.60;11.40;;;;;;;3.62;81.68;100075.84;111991;1249;23012;-45
2023/03/03 08:59:26;;;;;;;18.40;11.40;;;;;;;3.66;82.07;100075.25;112586;1249;22310;-53
2023/03/03 09:01:53;;;;;;;16.70;10.50;;;;;;;3.70;82.22;100070.50;112634;1249;22784;-53
2023/03/03 09:04:20;;;;;;;16.10;10.30;;;;;;;3.73;82.18;100070.77;112229;1249;22911;-53
2023/03/03 09:06:48;;;;;;;18.00;10.60;;;;;;;3.72;82.72;100071.27;112325;1249;23273;-51
2023/03/03 09:09:15;;;;;;;14.00;9.70;;;;;;;3.70;83.06;100065.00;112765;1249;22242;-53
2023/03/03 09:11:43;;;;;;;17.90;11.10;;;;;;;3.70;82.40;100064.83;112671;1249;22576;-50
2023/03/03 09:14:13;;;;;;;13.30;9.70;;;;;;;3.67;82.62;100067.18;112556;1248;23546;-50
2023/03/03 09:16:50;;;;;;;19.20;11.30;;;;;;;3.66;82.26;100067.33;112536;1248;23648;-52
2023/03/03 09:19:20;;;;;;;15.70;10.60;;;;;;;3.65;82.36;100062.46;112617;1249;22362;-53
2023/03/03 09:21:47;;;;;;;16.90;10.80;;;;;;;3.65;82.00;100059.36;112588;1248;22289;-51
2023/03/03 09:24:24;;;;;;;18.30;11.60;;;;;;;3.63;81.58;100058.27;112515;1249;22400;-52
2023/03/03 09:26:52;;;;;;;15.90;10.70;;;;;;;3.62;81.91;100057.73;112732;1249;22472;-53
2023/03/03 09:29:29;;;;;;;15.90;9.80;;;;;;;3.64;81.90;100049.48;112678;1248;22268;-51
2023/03/03 09:32:26;;;;;;;16.20;9.40;;;;;;;3.67;81.73;100052.70;112716;1249;22283;-44
2023/03/03 09:34:53;;;;;;;17.20;10.50;;;;;;;3.69;81.75;100051.70;112753;1249;22544;-44
2023/03/03 09:37:27;;;;;;;17.20;10.30;;;;;;;3.68;81.90;100050.46;112700;1249;22700;-44
2023/03/03 09:39:55;;;;;;;16.00;10.40;;;;;;;3.69;81.96;100047.89;112880;1249;22426;-52
2023/03/03 09:42:34;;;;;;;15.30;10.20;;;;;;;3.69;81.73;100046.52;112791;1248;22316;-53
2023/03/03 09:45:23;;;;;;;15.50;10.20;;;;;;;3.66;81.46;100040.56;112731;1249;22341;-44
2023/03/03 09:47:49;;;;;;;17.20;10.50;;;;;;;3.63;81.61;100039.11;112598;1249;23063;-51
2023/03/03 09:50:51;;;;;;;16.50;10.70;;;;;;;3.60;81.72;100040.42;112453;1249;22674;-53
2023/03/03 09:54:07;;;;;;;18.40;9.90;;;;;;;3.57;81.89;100036.05;111810;1249;24551;-53
2023/03/03 09:56:43;;;;;;;13.80;9.40;;;;;;;3.56;81.99;100034.65;112410;1248;22514;-44
2023/03/03 09:59:45;;;;;;;13.40;8.60;;;;;;;3.56;81.98;100034.81;112074;1249;22531;-54
2023/03/03 10:02:23;;;;;;;16.40;10.90;;;;;;;3.56;81.44;100032.41;111432;1244;22579;-45
2023/03/03 10:05:20;;;;;;;16.90;10.10;;;;;;;3.56;81.27;100031.36;112387;1249;22347;-56
2023/03/03 10:08:06;;;;;;;15.70;9.70;;;;;;;3.56;80.92;100027.41;111930;1248;23378;-45
2023/03/03 10:11:09;;;;;;;16.90;10.80;;;;;;;3.59;80.88;100022.64;111891;1248;22253;-44
2023/03/03 10:13:48;;;;;;;14.90;10.20;;;;;;;3.62;81.56;100020.30;112640;1248;22950;-55
2023/03/03 10:16:32;;;;;;;16.80;9.80;;;;;;;3.66;81.37;100019.53;112843;1249;22694;-45
2023/03/03 10:19:09;;;;;;;14.60;9.90;;;;;;;3.69;80.99;100016.50;112802;1249;23214;-45
2023/03/03 10:21:41;;;;;;;12.00;9.20;;;;;;;3.71;80.80;100012.91;111816;1249;22285;-52
2023/03/03 10:24:13;;;;;;;15.30;9.40;;;;;;;3.70;80.40;100010.48;112401;1248;22519;-52
2023/03/03 10:26:53;;;;;;;16.20;10.00;;;;;;;3.70;80.46;100002.70;112249;1249;22452;-43
2023/03/03 10:29:52;;;;;;;15.70;9.80;;;;;;;3.69;80.42;99998.73;112292;1249;22550;-43
2023/03/03 10:32:27;;;;;;;15.40;9.70;;;;;;;3.70;80.30;99994.09;111975;1244;22524;-45
2023/03/03 10:35:25;;;;;;;19.00;12.00;;;;;;;3.70;80.20;99993.06;112630;1248;23112;-53
2023/03/03 10:38:17;;;;;;;28.00;17.00;;;;;;;3.70;79.94;99996.17;111857;1248;22924;-42
2023/03/03 10:41:08;;;;;;;50.00;25.40;;;;;;;3.68;80.14;99987.33;112705;1240;22349;-52
2023/03/03 10:43:44;;;;;;;37.20;21.40;;;;;;;3.67;79.95;99984.38;112765;1249;23610;-53
2023/03/03 10:46:31;;;;;;;33.30;21.00;;;;;;;3.68;80.04;99980.09;112705;1249;22782;-43
2023/03/03 10:49:01;;;;;;;20.90;12.80;;;;;;;3.69;80.05;99973.03;112661;1249;23142;-43
2023/03/03 10:51:41;;;;;;;29.70;18.00;;;;;;;3.72;80.45;99971.38;112563;1248;23182;-54
2023/03/03 10:54:20;;;;;;;19.60;12.50;;;;;;;3.76;80.53;99964.37;112643;1249;23255;-43
2023/03/03 10:56:56;;;;;;;22.30;13.70;;;;;;;3.77;80.33;99960.46;112171;1248;23327;-43
2023/03/03 10:59:30;;;;;;;16.80;10.60;;;;;;;3.78;80.22;99955.80;112753;1248;22383;-46
2023/03/03 11:02:06;;;;;;;16.70;10.40;;;;;;;3.81;80.31;99951.89;111778;1248;22439;-51
2023/03/03 11:05:10;;;;;;;18.30;10.40;;;;;;;3.83;80.02;99952.31;112337;1249;22652;-54
2023/03/03 11:08:09;;;;;;;20.30;13.70;;;;;;;3.84;80.26;99945.77;112456;1249;23013;-42
2023/03/03 11:11:13;;;;;;;19.70;10.10;;;;;;;3.86;80.34;99943.90;111995;1249;22466;-43
2023/03/03 11:13:52;;;;;;;13.90;8.30;;;;;;;3.90;80.19;99941.23;112114;1249;22479;-54
2023/03/03 11:16:36;;;;;;;9.60;7.70;;;;;;;3.94;78.74;99943.56;112680;1249;22404;-53
2023/03/03 11:19:29;;;;;;;12.50;7.50;;;;;;;3.96;78.22;99939.64;112664;1249;22384;-45
2023/03/03 11:22:06;;;;;;;23.70;12.30;;;;;;;3.99;77.16;99938.13;111778;1249;22431;-52
2023/03/03 11:25:02;;;;;;;15.50;9.10;;;;;;;3.99;77.07;99930.89;111392;1249;22943;-44
2023/03/03 11:27:46;;;;;;;15.70;9.50;;;;;;;4.01;76.87;99928.52;111966;1249;22500;-57
2023/03/03 11:30:28;;;;;;;14.40;8.50;;;;;;;3.99;76.55;99927.44;111863;1249;22535;-53
2023/03/03 11:32:59;;;;;;;14.80;8.90;;;;;;;4.00;76.33;99922.97;111753;1249;22481;-54
2023/03/03 11:35:43;;;;;;;22.80;10.70;;;;;;;3.97;76.38;99922.23;112141;1249;24291;-56
2023/03/03 11:38:38;;;;;;;19.50;12.10;;;;;;;3.95;76.80;99922.19;112228;1249;23011;-44
2023/03/03 11:41:13;;;;;;;22.10;12.60;;;;;;;3.93;76.88;99916.95;112264;1249;23361;-54
2023/03/03 11:44:18;;;;;;;23.40;13.40;;;;;;;3.94;77.30;99912.31;112096;1249;22396;-52
2023/03/03 11:46:53;;;;;;;23.10;13.10;;;;;;;3.98;77.69;99910.33;112793;1249;22725;-55
2023/03/03 11:49:32;;;;;;;12.30;9.00;;;;;;;4.01;77.63;99907.80;112168;1249;22406;-52
2023/03/03 11:52:05;;;;;;;20.10;11.90;;;;;;;4.04;77.43;99906.30;112102;1248;23304;-54
2023/03/03 11:54:43;;;;;;;14.10;8.60;;;;;;;4.07;77.07;99906.73;112916;1249;22268;-53
2023/03/03 11:57:26;;;;;;;13.30;8.90;;;;;;;4.09;76.78;99898.30;112921;1249;22228;-43
2023/03/03 11:59:55;;;;;;;;;;;;;;;4.08;76.66;99897.60;112895;1249;22337;-44
2023/03/03 12:02:50;;;;;;;11.40;8.60;;;;;;;4.10;77.01;99897.09;112614;1249;22252;-53
2023/03/03 12:05:55;;;;;;;14.40;9.50;;;;;;;4.10;77.01;99896.77;111953;1249;22410;-53
2023/03/03 12:08:24;;;;;;;18.70;10.70;;;;;;;4.10;76.26;99898.99;112849;1249;22417;-44
2023/03/03 12:11:10;;;;;;;14.50;9.70;;;;;;;4.09;76.19;99896.57;112686;1249;22384;-55
2023/03/03 12:13:57;;;;;;;22.50;11.70;;;;;;;4.08;76.37;99894.66;112790;1249;22392;-44
2023/03/03 12:16:28;;;;;;;19.30;11.40;;;;;;;4.08;76.63;99890.17;112673;1249;22346;-53
2023/03/03 12:18:58;;;;;;;20.70;11.90;;;;;;;4.08;76.75;99882.57;112663;1249;23670;-45
2023/03/03 12:21:28;;;;;;;19.20;13.50;;;;;;;4.07;76.81;99882.39;112890;1249;22216;-45
2023/03/03 12:24:01;;;;;;;18.50;13.00;;;;;;;4.08;76.93;99878.42;112779;1249;23396;-54
2023/03/03 12:26:34;;;;;;;17.80;12.10;;;;;;;4.10;76.96;99877.94;112851;1249;22363;-44
2023/03/03 12:29:10;;;;;;;18.40;12.70;;;;;;;4.13;77.09;99871.97;112909;1249;22411;-44
2023/03/03 12:31:44;;;;;;;16.80;11.70;;;;;;;4.16;77.37;99869.77;112743;1249;22968;-54
2023/03/03 12:34:32;;;;;;;17.80;12.30;;;;;;;4.19;77.36;99870.02;112951;1248;23044;-53
2023/03/03 12:37:09;;;;;;;16.80;12.30;;;;;;;4.21;77.65;99862.80;113009;1249;22971;-45
2023/03/03 12:39:42;;;;;;;19.30;14.00;;;;;;;4.22;77.28;99861.09;112742;1249;22343;-44
2023/03/03 12:42:31;;;;;;;17.60;11.40;;;;;;;4.24;77.78;99857.34;112816;1249;23318;-54
2023/03/03 12:44:58;;;;;;;19.40;11.70;;;;;;;4.26;77.60;99853.91;112941;1248;22230;-55
2023/03/03 12:47:37;;;;;;;23.80;13.90;;;;;;;4.27;77.85;99853.41;112931;1248;23161;-55
2023/03/03 12:50:36;;;;;;;19.00;13.00;;;;;;;4.29;77.50;99850.70;112990;1249;22321;-44
2023/03/03 12:53:07;;;;;;;17.50;12.20;;;;;;;4.31;77.82;99844.16;112153;1257;22412;-54
2023/03/03 12:56:05;;;;;;;16.30;11.50;;;;;;;4.32;77.71;99840.89;112188;1257;22407;-44
2023/03/03 12:58:54;;;;;;;19.90;12.20;;;;;;;4.33;77.87;99841.27;111906;1257;22524;-43
2023/03/03 13:01:21;;;;;;;14.40;10.40;;;;;;;4.36;77.81;99838.39;111987;1257;23263;-44
2023/03/03 13:04:18;;;;;;;18.80;12.40;;;;;;;4.38;77.37;99833.06;112236;1257;23346;-44
2023/03/03 13:06:52;;;;;;;19.40;13.50;;;;;;;4.40;76.70;99835.68;111690;1257;22504;-45
2023/03/03 13:09:53;;;;;;;17.90;12.80;;;;;;;4.40;76.37;99835.52;111150;1257;23222;-45
2023/03/03 13:12:40;;;;;;;20.50;13.30;;;;;;;4.39;75.94;99832.38;109727;1257;22599;-53
2023/03/03 13:15:11;;;;;;;21.80;14.50;;;;;;;4.37;75.78;99828.91;109404;1257;26475;-44
2023/03/03 13:17:42;;;;;;;19.90;12.60;;;;;;;4.35;75.20;99826.79;109989;1257;24202;-43
2023/03/03 13:20:29;;;;;;;23.10;13.10;;;;;;;4.33;75.47;99821.56;110744;1257;25333;-54
2023/03/03 13:23:21;;;;;;;23.60;14.30;;;;;;;4.32;75.48;99817.77;111785;1257;24024;-54
2023/03/03 13:26:10;;;;;;;21.00;14.30;;;;;;;4.31;75.32;99817.06;110123;1257;22594;-53
